createdAt,value
2023-04-16T00:00:44.871Z,7.33
2023-04-16T00:03:30.430Z,6.60
2023-04-16T00:06:15.652Z,6.60
2023-04-16T00:09:00.631Z,6.53
2023-04-16T00:11:45.822Z,6.63
2023-04-16T00:14:30.754Z,5.80
2023-04-16T00:17:15.985Z,6.90
2023-04-16T00:20:01.178Z,6.60
2023-04-16T00:22:46.787Z,5.77
2023-04-16T00:25:32.012Z,6.63
2023-04-16T00:28:16.932Z,5.80
2023-04-16T00:31:02.147Z,6.40
2023-04-16T00:33:47.953Z,5.60
2023-04-16T00:36:32.962Z,5.60
2023-04-16T00:39:18.125Z,5.77
2023-04-16T00:42:03.244Z,5.80
2023-04-16T00:44:48.514Z,6.20
2023-04-16T00:47:33.787Z,5.93
2023-04-16T00:50:19.652Z,5.90
2023-04-16T00:53:05.274Z,4.93
2023-04-16T00:55:50.946Z,5.07
2023-04-16T00:58:36.248Z,5.57
2023-04-16T01:01:21.343Z,6.03
2023-04-16T01:04:07.302Z,5.43
2023-04-16T01:06:52.724Z,4.70
2023-04-16T01:09:37.675Z,5.33
2023-04-16T01:12:23.468Z,4.63
2023-04-16T01:15:11.316Z,4.73
2023-04-16T01:17:56.993Z,4.30
2023-04-16T01:20:42.828Z,4.47
2023-04-16T01:23:28.357Z,5.10
2023-04-16T01:26:13.612Z,4.93
2023-04-16T01:28:59.982Z,4.60
2023-04-16T01:31:46.800Z,4.83
2023-04-16T01:34:40.268Z,4.80
2023-04-16T01:37:25.802Z,5.10
2023-04-16T01:40:11.186Z,4.70
2023-04-16T01:42:56.502Z,4.80
2023-04-16T01:45:42.786Z,4.67
2023-04-16T01:48:30.466Z,4.27
2023-04-16T01:51:15.737Z,4.97
2023-04-16T01:54:00.906Z,5.80
2023-04-16T01:56:46.350Z,4.80
2023-04-16T01:59:31.620Z,4.33
2023-04-16T02:02:17.623Z,4.63
2023-04-16T02:05:03.298Z,4.27
2023-04-16T02:07:48.527Z,3.83
2023-04-16T02:10:35.029Z,4.47
2023-04-16T02:13:20.522Z,4.07
2023-04-16T02:16:06.478Z,4.37
2023-04-16T02:19:09.329Z,4.17
2023-04-16T02:21:55.300Z,3.87
2023-04-16T02:24:40.269Z,4.07
2023-04-16T02:27:28.077Z,3.70
2023-04-16T02:30:20.181Z,4.33
2023-04-16T02:33:07.286Z,3.87
2023-04-16T02:35:53.235Z,3.97
2023-04-16T02:38:38.518Z,4.37
2023-04-16T02:41:24.279Z,4.53
2023-04-16T02:44:09.452Z,3.90
2023-04-16T02:46:54.730Z,3.70
2023-04-16T02:49:39.683Z,3.93
2023-04-16T02:52:24.580Z,4.10
2023-04-16T02:55:10.447Z,3.57
2023-04-16T02:57:55.693Z,3.53
2023-04-16T03:00:40.791Z,3.70
2023-04-16T03:03:25.851Z,3.93
2023-04-16T03:06:11.544Z,4.03
2023-04-16T03:08:56.799Z,4.13
2023-04-16T03:11:42.015Z,3.20
2023-04-16T03:14:26.971Z,3.43
2023-04-16T03:17:12.096Z,3.53
2023-04-16T03:19:57.278Z,3.37
2023-04-16T03:22:42.629Z,3.40
2023-04-16T03:25:27.623Z,3.67
2023-04-16T03:28:12.499Z,3.27
2023-04-16T03:30:57.398Z,3.50
2023-04-16T03:33:42.993Z,3.93
2023-04-16T03:36:28.073Z,3.60
2023-04-16T03:39:13.206Z,3.47
2023-04-16T03:41:58.402Z,3.67
2023-04-16T03:44:43.805Z,3.50
2023-04-16T03:47:29.768Z,3.20
2023-04-16T03:50:19.541Z,3.70
2023-04-16T03:53:05.629Z,3.63
2023-04-16T03:55:52.492Z,3.37
2023-04-16T03:58:39.105Z,3.20
2023-04-16T04:01:24.573Z,3.63
2023-04-16T04:04:11.286Z,3.20
2023-04-16T04:06:56.908Z,3.50
2023-04-16T04:09:43.474Z,3.27
2023-04-16T04:12:28.905Z,3.37
2023-04-16T04:15:14.960Z,3.40
2023-04-16T04:18:01.191Z,3.03
2023-04-16T04:20:46.700Z,3.27
2023-04-16T04:23:35.406Z,3.57
2023-04-16T04:26:20.960Z,3.23
2023-04-16T04:29:06.526Z,3.30
2023-04-16T04:31:51.754Z,3.17
2023-04-16T04:34:37.243Z,3.10
2023-04-16T04:37:24.350Z,3.50
2023-04-16T04:40:10.141Z,2.83
2023-04-16T04:42:55.040Z,2.77
2023-04-16T04:45:42.170Z,3.00
2023-04-16T04:48:27.597Z,3.00
2023-04-16T04:51:13.578Z,2.97
2023-04-16T04:54:00.003Z,3.10
2023-04-16T04:56:45.861Z,2.60
2023-04-16T04:59:32.280Z,3.30
2023-04-16T05:02:18.288Z,2.90
2023-04-16T05:05:04.444Z,3.03
2023-04-16T05:07:50.488Z,2.90
2023-04-16T05:10:35.320Z,2.97
2023-04-16T05:13:20.374Z,3.10
2023-04-16T05:16:06.005Z,2.80
2023-04-16T05:18:51.484Z,2.80
2023-04-16T05:21:36.710Z,2.70
2023-04-16T05:24:22.453Z,2.37
2023-04-16T05:27:07.509Z,2.40
2023-04-16T05:29:52.529Z,2.37
2023-04-16T05:32:39.704Z,2.57
2023-04-16T05:35:24.919Z,2.80
2023-04-16T05:38:10.345Z,2.40
2023-04-16T05:40:55.855Z,2.70
2023-04-16T05:43:40.635Z,2.93
2023-04-16T05:46:25.972Z,2.47
2023-04-16T05:49:11.644Z,3.00
2023-04-16T05:51:57.192Z,2.53
2023-04-16T05:54:42.202Z,2.80
2023-04-16T05:57:28.650Z,2.50
2023-04-16T06:00:13.988Z,2.30
2023-04-16T06:02:59.509Z,2.27
2023-04-16T06:05:44.969Z,2.93
2023-04-16T06:08:30.472Z,2.73
2023-04-16T06:11:15.873Z,2.70
2023-04-16T06:14:01.109Z,2.70
2023-04-16T06:16:46.011Z,2.43
2023-04-16T06:19:31.110Z,2.93
2023-04-16T06:22:16.318Z,2.90
2023-04-16T06:25:01.686Z,2.90
2023-04-16T06:27:46.958Z,2.80
2023-04-16T06:30:32.102Z,2.53
2023-04-16T06:33:17.468Z,2.90
2023-04-16T06:36:02.614Z,2.30
2023-04-16T06:38:47.487Z,2.50
2023-04-16T06:41:32.678Z,2.70
2023-04-16T06:44:17.864Z,2.17
2023-04-16T06:47:02.922Z,2.60
2023-04-16T06:49:48.102Z,2.30
2023-04-16T06:52:33.204Z,2.30
2023-04-16T06:55:18.514Z,2.60
2023-04-16T06:58:03.706Z,2.60
2023-04-16T07:00:48.968Z,2.63
2023-04-16T07:03:34.409Z,2.40
2023-04-16T07:06:19.547Z,2.63
2023-04-16T07:09:04.551Z,2.90
2023-04-16T07:11:49.517Z,2.30
2023-04-16T07:14:34.410Z,2.43
2023-04-16T07:17:19.570Z,2.80
2023-04-16T07:20:05.542Z,2.80
2023-04-16T07:22:50.820Z,2.27
2023-04-16T07:25:36.049Z,2.17
2023-04-16T07:28:20.951Z,2.67
2023-04-16T07:31:06.239Z,2.13
2023-04-16T07:33:51.554Z,2.30
2023-04-16T07:36:36.931Z,2.67
2023-04-16T07:39:22.171Z,2.23
2023-04-16T07:42:06.961Z,2.43
2023-04-16T07:44:52.177Z,2.23
2023-04-16T07:47:37.174Z,2.50
2023-04-16T07:50:22.774Z,2.20
2023-04-16T07:53:08.031Z,1.70
2023-04-16T07:55:53.259Z,2.10
2023-04-16T07:58:38.254Z,2.10
2023-04-16T08:01:23.351Z,2.33
2023-04-16T08:04:08.877Z,2.00
2023-04-16T08:06:54.385Z,1.90
2023-04-16T08:09:48.408Z,2.10
2023-04-16T08:12:33.845Z,2.50
2023-04-16T08:15:19.314Z,2.13
2023-04-16T08:18:06.972Z,2.20
2023-04-16T08:20:52.257Z,2.17
2023-04-16T08:23:37.288Z,2.50
2023-04-16T08:26:22.254Z,2.10
2023-04-16T08:29:07.440Z,2.50
2023-04-16T08:31:54.229Z,2.20
2023-04-16T08:34:39.688Z,2.07
2023-04-16T08:37:25.826Z,2.17
2023-04-16T08:40:11.530Z,1.60
2023-04-16T08:42:59.963Z,2.03
2023-04-16T08:45:47.409Z,2.00
2023-04-16T08:48:34.056Z,2.10
2023-04-16T08:51:22.009Z,1.90
2023-04-16T08:54:14.834Z,2.00
2023-04-16T08:57:01.645Z,2.00
2023-04-16T08:59:47.774Z,1.63
2023-04-16T09:02:33.768Z,1.80
2023-04-16T09:05:22.672Z,1.90
2023-04-16T09:08:08.683Z,1.90
2023-04-16T09:10:55.901Z,1.43
2023-04-16T09:13:40.876Z,2.00
2023-04-16T09:16:27.769Z,2.53
2023-04-16T09:19:14.257Z,1.90
2023-04-16T09:21:59.690Z,1.70
2023-04-16T09:24:44.857Z,2.03
2023-04-16T09:27:30.715Z,2.03
2023-04-16T09:30:27.087Z,1.90
2023-04-16T09:33:22.120Z,2.00
2023-04-16T09:36:10.353Z,1.80
2023-04-16T09:38:57.574Z,1.80
2023-04-16T09:41:43.198Z,2.00
2023-04-16T09:44:38.725Z,1.57
2023-04-16T09:47:25.911Z,1.80
2023-04-16T09:50:18.184Z,2.00
2023-04-16T09:53:03.852Z,2.00
2023-04-16T09:55:49.210Z,1.70
2023-04-16T09:58:36.918Z,1.93
2023-04-16T10:01:21.964Z,1.70
2023-04-16T10:04:07.774Z,2.17
2023-04-16T10:07:04.947Z,1.77
2023-04-16T10:09:50.568Z,1.67
2023-04-16T10:12:35.849Z,1.80
2023-04-16T10:15:22.038Z,1.80
2023-04-16T10:18:07.330Z,1.63
2023-04-16T10:20:53.010Z,1.70
2023-04-16T10:23:41.730Z,2.13
2023-04-16T10:26:29.433Z,1.70
2023-04-16T10:29:15.633Z,1.80
2023-04-16T10:32:01.854Z,1.90
2023-04-16T10:34:47.898Z,1.47
2023-04-16T10:37:33.489Z,1.63
2023-04-16T10:40:26.399Z,1.77
2023-04-16T10:43:17.880Z,1.70
2023-04-16T10:46:31.264Z,1.80
2023-04-16T10:49:23.029Z,1.70
2023-04-16T10:52:12.296Z,1.73
2023-04-16T10:54:59.194Z,1.70
2023-04-16T10:57:49.827Z,1.77
2023-04-16T11:00:49.360Z,1.30
2023-04-16T11:03:34.470Z,1.37
2023-04-16T11:06:27.555Z,1.77
2023-04-16T11:09:51.569Z,1.60
2023-04-16T11:12:56.921Z,1.70
2023-04-16T11:15:42.065Z,1.60
2023-04-16T11:18:27.569Z,1.73
2023-04-16T11:21:13.453Z,1.53
2023-04-16T11:23:58.234Z,1.60
2023-04-16T11:26:43.459Z,1.60
2023-04-16T11:29:28.210Z,1.87
2023-04-16T11:32:21.883Z,1.73
2023-04-16T11:35:18.083Z,1.70
2023-04-16T11:38:02.967Z,1.80
2023-04-16T11:40:49.943Z,1.80
2023-04-16T11:43:34.899Z,5.10
2023-04-16T11:46:27.511Z,6.37
2023-04-16T11:49:13.460Z,2.97
2023-04-16T11:52:00.470Z,1.83
2023-04-16T11:54:50.326Z,1.70
2023-04-16T11:57:35.048Z,1.90
2023-04-16T12:00:21.802Z,5.40
2023-04-16T12:03:10.350Z,1.90
2023-04-16T12:05:55.509Z,1.70
2023-04-16T12:08:42.746Z,1.90
2023-04-16T12:11:43.493Z,1.73
2023-04-16T12:14:29.199Z,1.60
2023-04-16T12:17:21.101Z,4.70
2023-04-16T12:20:14.886Z,1.90
2023-04-16T12:23:01.357Z,2.13
2023-04-16T12:25:46.412Z,2.10
2023-04-16T12:28:38.174Z,1.87
2023-04-16T12:31:38.104Z,2.70
2023-04-16T12:34:27.754Z,2.63
2023-04-16T12:37:28.359Z,2.03
2023-04-16T12:40:13.514Z,3.40
2023-04-16T12:42:58.714Z,2.27
2023-04-16T12:45:43.635Z,4.43
2023-04-16T12:48:28.654Z,2.03
2023-04-16T12:51:13.968Z,5.57
2023-04-16T12:54:01.073Z,7.23
2023-04-16T12:56:46.417Z,4.00
2023-04-16T12:59:31.330Z,3.03
2023-04-16T13:02:16.837Z,2.37
2023-04-16T13:05:02.650Z,3.23
2023-04-16T13:07:48.267Z,2.27
2023-04-16T13:10:33.581Z,2.97
2023-04-16T13:13:18.402Z,14.40
2023-04-16T13:16:08.437Z,2.07
2023-04-16T13:18:53.692Z,2.17
2023-04-16T13:21:38.844Z,5.47
2023-04-16T13:24:24.512Z,5.10
2023-04-16T13:27:09.514Z,2.50
2023-04-16T13:29:54.894Z,3.87
2023-04-16T13:32:40.810Z,10.13
2023-04-16T13:35:27.272Z,5.47
2023-04-16T13:38:12.542Z,3.57
2023-04-16T13:40:57.370Z,3.70
2023-04-16T13:43:42.244Z,2.70
2023-04-16T13:46:27.254Z,4.70
2023-04-16T13:49:12.559Z,4.77
2023-04-16T13:51:57.908Z,5.30
2023-04-16T13:54:42.832Z,5.07
2023-04-16T13:57:37.730Z,3.67
2023-04-16T14:00:22.684Z,2.70
2023-04-16T14:03:07.926Z,6.73
2023-04-16T14:05:53.364Z,5.80
2023-04-16T14:08:38.378Z,7.10
2023-04-16T14:11:24.021Z,5.60
2023-04-16T14:14:09.538Z,2.63
2023-04-16T14:16:54.932Z,5.70
2023-04-16T14:19:39.811Z,2.63
2023-04-16T14:22:24.742Z,2.37
2023-04-16T14:25:09.696Z,3.27
2023-04-16T14:27:55.048Z,5.60
2023-04-16T14:30:40.494Z,3.10
2023-04-16T14:33:25.947Z,3.53
2023-04-16T14:36:11.430Z,3.47
2023-04-16T14:38:56.411Z,2.73
2023-04-16T14:41:41.528Z,3.40
2023-04-16T14:44:26.518Z,3.27
2023-04-16T14:47:11.514Z,3.47
2023-04-16T14:49:56.471Z,4.27
2023-04-16T14:52:41.649Z,3.93
2023-04-16T14:55:26.977Z,3.40
2023-04-16T14:58:12.158Z,3.83
2023-04-16T15:01:00.612Z,4.70
2023-04-16T15:03:45.730Z,4.63
2023-04-16T15:06:32.301Z,2.90
2023-04-16T15:09:17.352Z,3.53
2023-04-16T15:12:02.611Z,4.13
2023-04-16T15:14:47.902Z,2.37
2023-04-16T15:17:32.914Z,3.27
2023-04-16T15:20:18.410Z,4.20
2023-04-16T15:23:03.830Z,2.67
2023-04-16T15:25:49.029Z,2.57
2023-04-16T15:28:34.490Z,3.33
2023-04-16T15:31:20.887Z,2.60
2023-04-16T15:34:06.346Z,3.13
2023-04-16T15:36:51.881Z,3.37
2023-04-16T15:39:36.981Z,2.80
2023-04-16T15:42:21.869Z,2.80
2023-04-16T15:45:07.378Z,2.57
2023-04-16T15:47:52.691Z,3.07
2023-04-16T15:50:38.021Z,3.07
2023-04-16T15:53:23.142Z,2.40
2023-04-16T15:56:08.584Z,3.50
2023-04-16T15:58:53.634Z,3.17
2023-04-16T16:01:38.864Z,2.33
2023-04-16T16:04:26.644Z,2.50
2023-04-16T16:07:12.639Z,3.30
2023-04-16T16:09:58.511Z,2.00
2023-04-16T16:12:43.600Z,2.73
2023-04-16T16:15:29.174Z,4.50
2023-04-16T16:18:14.391Z,2.53
2023-04-16T16:21:00.011Z,2.30
2023-04-16T16:23:44.836Z,2.50
2023-04-16T16:26:30.403Z,2.33
2023-04-16T16:29:15.781Z,3.77
2023-04-16T16:32:01.142Z,2.40
2023-04-16T16:34:46.465Z,2.33
2023-04-16T16:37:31.435Z,2.17
2023-04-16T16:40:16.760Z,2.47
2023-04-16T16:43:02.670Z,2.73
2023-04-16T16:45:48.411Z,1.90
2023-04-16T16:48:33.599Z,2.27
2023-04-16T16:51:18.899Z,2.07
2023-04-16T16:54:04.253Z,2.17
2023-04-16T16:56:49.248Z,2.10
2023-04-16T16:59:34.370Z,2.03
2023-04-16T17:02:19.325Z,2.90
2023-04-16T17:05:05.952Z,2.20
2023-04-16T17:07:51.154Z,2.20
2023-04-16T17:10:36.066Z,2.03
2023-04-16T17:13:21.002Z,2.23
2023-04-16T17:16:06.358Z,2.33
2023-04-16T17:18:51.480Z,1.90
2023-04-16T17:21:36.702Z,2.40
2023-04-16T17:24:21.915Z,2.17
2023-04-16T17:27:06.826Z,2.30
2023-04-16T17:29:52.809Z,2.90
2023-04-16T17:32:38.013Z,2.00
2023-04-16T17:35:23.314Z,2.00
2023-04-16T17:38:08.455Z,2.53
2023-04-16T17:40:53.763Z,2.23
2023-04-16T17:43:38.760Z,2.20
2023-04-16T17:46:24.220Z,1.77
2023-04-16T17:49:09.325Z,2.13
2023-04-16T17:51:54.698Z,2.07
2023-04-16T17:54:40.303Z,2.47
2023-04-16T17:57:25.164Z,2.27
2023-04-16T18:00:14.278Z,2.07
2023-04-16T18:02:59.759Z,2.20
2023-04-16T18:05:44.813Z,1.60
2023-04-16T18:08:29.886Z,1.53
2023-04-16T18:11:15.044Z,1.43
2023-04-16T18:14:00.186Z,1.70
2023-04-16T18:16:49.165Z,1.90
2023-04-16T18:19:35.468Z,1.77
2023-04-16T18:22:20.771Z,2.47
2023-04-16T18:25:06.635Z,1.73
2023-04-16T18:27:51.853Z,1.73
2023-04-16T18:30:40.460Z,1.60
2023-04-16T18:33:52.376Z,1.90
2023-04-16T18:36:31.131Z,1.70
2023-04-16T18:39:16.403Z,2.07
2023-04-16T18:42:01.567Z,1.70
2023-04-16T18:44:54.078Z,2.00
2023-04-16T18:47:39.980Z,1.50
2023-04-16T18:50:26.264Z,1.57
2023-04-16T18:53:11.274Z,2.10
2023-04-16T18:55:56.382Z,1.80
2023-04-16T18:58:41.620Z,1.53
2023-04-16T19:01:26.648Z,1.87
2023-04-16T19:04:12.364Z,1.70
2023-04-16T19:06:57.783Z,1.83
2023-04-16T19:09:43.022Z,2.03
2023-04-16T19:12:28.181Z,1.80
2023-04-16T19:15:14.696Z,1.97
2023-04-16T19:17:59.908Z,1.90
2023-04-16T19:20:45.172Z,2.03
2023-04-16T19:23:30.543Z,1.83
2023-04-16T19:26:16.004Z,1.73
2023-04-16T19:29:01.353Z,1.63
2023-04-16T19:31:47.049Z,1.80
2023-04-16T19:34:32.322Z,2.00
2023-04-16T19:37:17.277Z,1.90
2023-04-16T19:40:02.278Z,1.77
2023-04-16T19:42:47.660Z,2.43
2023-04-16T19:45:32.933Z,1.50
2023-04-16T19:48:18.515Z,1.33
2023-04-16T19:51:04.229Z,1.80
2023-04-16T19:53:49.653Z,1.80
2023-04-16T19:56:34.599Z,1.60
2023-04-16T19:59:20.649Z,1.90
2023-04-16T20:02:06.151Z,1.57
2023-04-16T20:04:52.984Z,1.73
2023-04-16T20:07:38.224Z,2.10
2023-04-16T20:10:23.804Z,1.70
2023-04-16T20:13:11.957Z,1.50
2023-04-16T20:15:57.432Z,1.80
2023-04-16T20:18:42.703Z,1.67
2023-04-16T20:21:28.071Z,2.10
2023-04-16T20:24:15.238Z,1.60
2023-04-16T20:27:01.661Z,1.83
2023-04-16T20:29:46.831Z,1.50
2023-04-16T20:32:31.874Z,1.83
2023-04-16T20:35:16.756Z,1.50
2023-04-16T20:38:02.353Z,1.87
2023-04-16T20:40:47.199Z,1.80
2023-04-16T20:43:38.500Z,1.80
2023-04-16T20:46:24.306Z,1.50
2023-04-16T20:49:09.955Z,2.00
2023-04-16T20:51:55.043Z,1.60
2023-04-16T20:54:40.375Z,2.00
2023-04-16T20:57:27.918Z,1.70
2023-04-16T21:00:13.961Z,2.10
2023-04-16T21:02:59.037Z,1.60
2023-04-16T21:05:49.911Z,1.43
2023-04-16T21:08:35.320Z,1.70
2023-04-16T21:11:20.735Z,1.80
2023-04-16T21:14:05.947Z,2.33
2023-04-16T21:16:51.098Z,1.80
2023-04-16T21:19:36.335Z,1.60
2023-04-16T21:22:21.843Z,1.77
2023-04-16T21:25:07.486Z,1.60
2023-04-16T21:27:52.310Z,1.70
2023-04-16T21:30:37.460Z,1.47
2023-04-16T21:33:22.708Z,1.63
2023-04-16T21:36:08.049Z,1.30
2023-04-16T21:38:53.224Z,1.53
2023-04-16T21:41:38.210Z,1.20
2023-04-16T21:44:23.154Z,1.23
2023-04-16T21:47:08.102Z,1.47
2023-04-16T21:49:53.530Z,1.87
2023-04-16T21:52:40.541Z,1.30
2023-04-16T21:55:26.165Z,1.60
2023-04-16T21:58:11.036Z,1.53
2023-04-16T22:00:56.222Z,1.50
2023-04-16T22:03:41.568Z,1.30
2023-04-16T22:06:27.120Z,1.40
2023-04-16T22:09:12.190Z,1.40
2023-04-16T22:11:57.688Z,1.30
2023-04-16T22:14:55.457Z,1.40
2023-04-16T22:17:48.360Z,1.30
2023-04-16T22:20:38.748Z,1.80
2023-04-16T22:23:24.997Z,1.60
2023-04-16T22:26:10.423Z,1.23
2023-04-16T22:28:55.687Z,1.70
2023-04-16T22:31:40.642Z,1.30
2023-04-16T22:34:25.962Z,1.30
2023-04-16T22:37:11.163Z,1.20
2023-04-16T22:39:56.240Z,1.30
2023-04-16T22:42:41.534Z,1.60
2023-04-16T22:45:27.244Z,1.07
2023-04-16T22:48:12.426Z,1.40
2023-04-16T22:50:57.792Z,1.83
2023-04-16T22:53:42.841Z,1.33
2023-04-16T22:56:28.903Z,1.30
2023-04-16T22:59:13.960Z,1.40
2023-04-16T23:01:59.526Z,1.93
2023-04-16T23:04:45.999Z,1.47
2023-04-16T23:07:31.132Z,1.53
2023-04-16T23:10:16.072Z,1.43
2023-04-16T23:13:01.442Z,1.40
2023-04-16T23:15:47.292Z,1.47
2023-04-16T23:18:32.366Z,1.30
2023-04-16T23:21:17.596Z,1.30
2023-04-16T23:24:03.325Z,2.03
2023-04-16T23:26:48.582Z,1.20
2023-04-16T23:29:33.996Z,1.50
2023-04-16T23:32:18.980Z,1.60
2023-04-16T23:35:04.872Z,1.50
2023-04-16T23:37:49.709Z,1.60
2023-04-16T23:40:34.758Z,1.47
2023-04-16T23:43:19.480Z,1.40
2023-04-16T23:46:04.481Z,1.40
2023-04-16T23:48:49.515Z,1.43
2023-04-16T23:51:34.432Z,1.20
2023-04-16T23:54:19.518Z,1.20
2023-04-16T23:57:04.667Z,1.50
2023-04-16T23:59:49.979Z,1.53
